Time;durP1;ratioP1;P1;durP2;ratioP2;P2;SDS_P1;SDS_P2;PMS_P1;PMS_P2;Temp;Humidity;BMP_temperature;BMP_pressure;BME280_temperature;BME280_humidity;BME280_pressure;Samples;Min_cycle;Max_cycle;Signal;HPM_P1;HPM_P2
2021/06/18 00:01:05;;;;;;;9.78;6.63;;;;;;;17.79;63.39;98758.30;126287;1093;26251;-83
2021/06/18 00:03:50;;;;;;;12.10;6.70;;;;;;;17.69;63.72;98753.69;126122;1093;22757;-83
2021/06/18 00:06:17;;;;;;;9.05;7.35;;;;;;;17.62;63.68;98756.75;126184;1093;27150;-83
2021/06/18 00:08:44;;;;;;;8.30;6.15;;;;;;;17.54;63.94;98751.02;126071;1093;22764;-83
2021/06/18 00:11:11;;;;;;;7.30;6.30;;;;;;;17.51;64.32;98746.06;125982;1093;27195;-83
2021/06/18 00:13:38;;;;;;;8.00;6.20;;;;;;;17.45;64.47;98740.58;126163;1093;22819;-83
2021/06/18 00:16:05;;;;;;;9.10;5.70;;;;;;;17.42;64.85;98735.66;126076;1093;22774;-83
2021/06/18 00:18:32;;;;;;;8.43;6.17;;;;;;;17.40;65.08;98739.79;126051;1093;22822;-83
2021/06/18 00:20:59;;;;;;;9.78;6.30;;;;;;;17.37;65.07;98740.34;126321;1092;24422;-83
2021/06/18 00:23:25;;;;;;;8.00;6.10;;;;;;;17.31;65.05;98745.06;126290;1092;22816;-83
2021/06/18 00:25:52;;;;;;;8.45;6.30;;;;;;;17.26;64.88;98745.08;126111;1092;22757;-83
2021/06/18 00:28:19;;;;;;;10.90;6.40;;;;;;;17.20;65.05;98738.78;126249;1093;22643;-83
2021/06/18 00:30:46;;;;;;;8.13;6.03;;;;;;;17.16;65.31;98736.89;126264;1093;22802;-83
2021/06/18 00:33:30;;;;;;;7.50;6.10;;;;;;;17.13;65.45;98738.26;126090;1093;22952;-83
2021/06/18 00:35:58;;;;;;;8.98;6.18;;;;;;;17.14;65.56;98739.92;126089;1093;22922;-83
2021/06/18 00:38:25;;;;;;;7.33;6.13;;;;;;;17.15;65.31;98741.55;126047;1093;22777;-83
2021/06/18 00:40:51;;;;;;;9.65;6.58;;;;;;;17.09;65.60;98739.94;126374;1092;22791;-83
2021/06/18 00:43:19;;;;;;;8.68;6.73;;;;;;;17.02;65.44;98742.98;126227;1092;22841;-83
2021/06/18 00:45:46;;;;;;;10.07;6.67;;;;;;;16.95;65.60;98738.89;126228;1093;22918;-83
2021/06/18 00:48:13;;;;;;;10.90;7.37;;;;;;;16.89;65.72;98740.80;126024;1093;22763;-84
2021/06/18 00:50:42;;;;;;;8.13;6.60;;;;;;;16.79;66.29;98741.64;126054;1092;22754;-83
2021/06/18 00:53:09;;;;;;;10.50;7.30;;;;;;;16.68;66.68;98748.28;126058;1093;22918;-83
2021/06/18 00:55:36;;;;;;;8.05;6.75;;;;;;;16.64;66.35;98744.41;126212;1093;26939;-83
2021/06/18 00:58:03;;;;;;;7.93;6.33;;;;;;;16.62;66.89;98733.69;125987;1093;22775;-83
2021/06/18 01:00:30;;;;;;;10.17;6.20;;;;;;;16.63;67.43;98726.28;126003;1092;22781;-83
2021/06/18 01:02:57;;;;;;;8.23;6.47;;;;;;;16.63;67.06;98721.59;126211;1093;22758;-83
2021/06/18 01:05:25;;;;;;;7.70;6.05;;;;;;;16.61;67.16;98717.47;126067;1093;22784;-83
2021/06/18 01:08:45;;;;;;;8.50;6.05;;;;;;;16.62;67.33;98719.94;126044;1093;22784;-83
2021/06/18 01:11:24;;;;;;;9.05;6.70;;;;;;;16.61;67.64;98717.47;126085;1093;26284;-83
2021/06/18 01:14:02;;;;;;;9.60;6.95;;;;;;;16.59;67.35;98714.17;126186;1093;24401;-83
2021/06/18 01:17:04;;;;;;;10.58;5.95;;;;;;;16.61;67.50;98718.31;125998;1093;22756;-83
2021/06/18 01:20:06;;;;;;;8.90;6.30;;;;;;;16.65;67.56;98713.08;126105;1094;22761;-83
2021/06/18 01:22:35;;;;;;;9.67;6.60;;;;;;;16.67;67.71;98710.87;126037;1092;22986;-83
2021/06/18 01:25:18;;;;;;;7.88;6.83;;;;;;;16.65;67.25;98707.58;126231;1092;22922;-83
2021/06/18 01:27:57;;;;;;;12.17;6.80;;;;;;;16.61;67.79;98709.22;126011;1093;26252;-83
2021/06/18 01:30:26;;;;;;;8.97;6.70;;;;;;;16.55;67.53;98710.34;125999;1093;24441;-83
2021/06/18 01:32:57;;;;;;;10.70;6.70;;;;;;;16.50;67.58;98705.67;126257;1093;22760;-83
2021/06/18 01:35:29;;;;;;;11.50;7.70;;;;;;;16.47;67.90;98714.49;126248;1093;24155;-83
2021/06/18 01:37:58;;;;;;;10.13;6.80;;;;;;;16.45;68.11;98722.16;126215;1093;22797;-83
2021/06/18 01:40:27;;;;;;;;;;;;;;;16.41;68.27;98724.64;126132;1092;22916;-83
2021/06/18 01:42:55;;;;;;;9.83;6.80;;;;;;;16.38;68.47;98716.98;126166;1092;21550;-83
2021/06/18 01:45:26;;;;;;;9.98;6.93;;;;;;;16.37;68.61;98717.25;126028;1093;22807;-83
2021/06/18 01:47:55;;;;;;;9.47;6.70;;;;;;;16.36;68.56;98721.08;126053;1093;24412;-83
2021/06/18 01:50:25;;;;;;;8.18;7.08;;;;;;;16.36;68.77;98723.83;126198;1093;23039;-83
2021/06/18 01:53:16;;;;;;;10.18;7.50;;;;;;;16.32;68.68;98718.91;126194;1093;22819;-83
2021/06/18 01:55:46;;;;;;;9.50;7.13;;;;;;;16.30;68.73;98723.83;126205;1093;25839;-83
2021/06/18 01:58:16;;;;;;;11.43;7.30;;;;;;;16.28;69.08;98726.04;126192;1093;24424;-83
2021/06/18 02:00:58;;;;;;;7.78;6.03;;;;;;;16.26;69.20;98720.00;126046;1093;22768;-82
2021/06/18 02:03:29;;;;;;;12.15;6.95;;;;;;;16.25;69.17;98720.27;126220;1093;22809;-83
2021/06/18 02:06:00;;;;;;;8.00;6.53;;;;;;;16.24;69.52;98730.45;126013;1093;24403;-83
2021/06/18 02:08:27;;;;;;;9.98;6.93;;;;;;;16.22;69.40;98720.81;126026;1093;22770;-83
2021/06/18 02:10:57;;;;;;;13.17;7.60;;;;;;;16.22;69.67;98718.06;126031;1093;22818;-83
2021/06/18 02:13:28;;;;;;;11.80;7.80;;;;;;;16.20;69.98;98715.63;126073;1093;22815;-83
2021/06/18 02:15:57;;;;;;;11.85;7.15;;;;;;;16.17;69.70;98721.66;126063;1092;22781;-83
2021/06/18 02:18:40;;;;;;;9.37;7.10;;;;;;;16.19;69.73;98732.38;126178;1093;26118;-83
2021/06/18 02:21:07;;;;;;;10.55;6.85;;;;;;;16.20;69.56;98734.01;126217;1092;22772;-82
2021/06/18 02:23:37;;;;;;;9.30;7.07;;;;;;;16.22;69.87;98732.66;126024;1092;24299;-83
2021/06/18 02:26:07;;;;;;;10.63;7.57;;;;;;;16.22;69.89;98723.56;126201;1093;22761;-82
2021/06/18 02:28:34;;;;;;;10.63;7.53;;;;;;;16.24;70.03;98730.45;126059;1092;22915;-82
2021/06/18 02:31:03;;;;;;;12.37;7.57;;;;;;;16.24;70.06;98724.14;126195;1093;22797;-83
2021/06/18 02:33:29;;;;;;;9.90;7.98;;;;;;;16.24;70.06;98724.14;126208;1093;22762;-83
2021/06/18 02:35:57;;;;;;;10.30;7.55;;;;;;;16.23;70.01;98736.22;126143;1092;22941;-83
2021/06/18 02:38:24;;;;;;;11.15;7.63;;;;;;;16.24;69.67;98735.13;126038;1093;22761;-83
2021/06/18 02:40:51;;;;;;;12.30;7.45;;;;;;;16.24;69.40;98735.13;126217;1092;26254;-82
2021/06/18 02:43:18;;;;;;;11.53;8.10;;;;;;;16.25;69.75;98736.76;125975;1093;22763;-82
2021/06/18 02:45:45;;;;;;;10.07;7.57;;;;;;;16.28;69.87;98734.28;126214;1093;22844;-83
2021/06/18 02:48:49;;;;;;;11.23;7.73;;;;;;;16.30;70.28;98739.51;126210;1092;24450;-83
2021/06/18 02:51:20;;;;;;;10.90;7.47;;;;;;;16.28;70.14;98737.03;126025;1093;23050;-83
2021/06/18 02:54:25;;;;;;;10.53;7.47;;;;;;;16.26;70.04;98738.42;126138;1093;22797;-83
2021/06/18 02:56:57;;;;;;;11.30;6.90;;;;;;;16.24;69.74;98741.44;126026;1093;22776;-83
2021/06/18 02:59:55;;;;;;;13.55;7.90;;;;;;;16.24;69.63;98746.13;126267;1093;22797;-83
2021/06/18 03:02:30;;;;;;;9.03;6.63;;;;;;;16.21;69.68;98738.42;126170;1093;22781;-83
2021/06/18 03:04:58;;;;;;;10.48;7.68;;;;;;;16.19;70.12;98743.38;126166;1092;26251;-83
2021/06/18 03:07:29;;;;;;;12.33;7.35;;;;;;;16.15;70.42;98745.84;126164;1092;23293;-83
2021/06/18 03:10:15;;;;;;;11.60;6.87;;;;;;;16.12;70.41;98749.95;126039;1093;22789;-83
2021/06/18 03:13:03;;;;;;;13.20;8.00;;;;;;;16.14;70.83;98746.93;126259;1093;22794;-83
2021/06/18 03:15:34;;;;;;;11.67;7.80;;;;;;;16.15;70.86;98754.09;126170;1093;23052;-83
2021/06/18 03:18:02;;;;;;;11.87;8.10;;;;;;;16.18;70.61;98752.70;126080;1093;22754;-83
2021/06/18 03:20:33;;;;;;;10.90;7.80;;;;;;;16.19;70.89;98755.18;126040;1093;22824;-83
2021/06/18 03:23:03;;;;;;;10.75;8.20;;;;;;;16.19;70.86;98757.11;126121;1093;22925;-83
2021/06/18 03:25:34;;;;;;;12.27;8.67;;;;;;;16.20;71.13;98755.99;126129;1093;22865;-82
2021/06/18 03:28:17;;;;;;;13.73;8.23;;;;;;;16.20;71.30;98753.25;126178;1093;22761;-82
2021/06/18 03:30:47;;;;;;;11.40;7.95;;;;;;;16.17;70.97;98762.06;126237;1092;22812;-82
2021/06/18 03:33:16;;;;;;;13.33;8.20;;;;;;;16.14;70.92;98753.23;126054;1093;22785;-83
2021/06/18 03:35:43;;;;;;;12.83;8.47;;;;;;;16.12;71.05;98762.88;126157;1093;22784;-82
2021/06/18 03:38:11;;;;;;;13.77;8.73;;;;;;;16.11;71.16;98761.20;126018;1093;22768;-83
2021/06/18 03:40:40;;;;;;;13.70;8.63;;;;;;;16.12;71.07;98758.19;126124;1093;22790;-82
2021/06/18 03:43:08;;;;;;;9.77;8.20;;;;;;;16.14;71.22;98757.92;126069;1093;22823;-82
2021/06/18 03:45:39;;;;;;;17.50;8.47;;;;;;;16.15;71.43;98759.58;126283;1093;24407;-82
2021/06/18 03:48:08;;;;;;;13.67;8.10;;;;;;;16.16;71.31;98761.22;126173;1093;22761;-83
2021/06/18 03:50:50;;;;;;;11.25;7.75;;;;;;;16.24;71.31;98762.61;126054;1093;22746;-82
2021/06/18 03:53:17;;;;;;;11.30;7.98;;;;;;;16.27;71.47;98754.64;126073;1093;22784;-83
2021/06/18 03:55:48;;;;;;;13.80;8.53;;;;;;;16.34;71.66;98762.59;126013;1092;22857;-82
2021/06/18 03:58:21;;;;;;;11.37;8.20;;;;;;;16.40;71.41;98761.50;126192;1093;22781;-82
2021/06/18 04:00:50;;;;;;;11.20;7.98;;;;;;;16.46;71.54;98765.06;126150;1093;22820;-83
2021/06/18 04:03:20;;;;;;;11.70;8.53;;;;;;;16.49;71.42;98761.77;126227;1093;22761;-83
2021/06/18 04:06:07;;;;;;;11.23;8.73;;;;;;;16.54;71.77;98761.77;126243;1093;22759;-83
2021/06/18 04:08:37;;;;;;;14.37;8.20;;;;;;;16.60;71.51;98765.33;126002;1092;22764;-83
2021/06/18 04:11:06;;;;;;;12.23;8.07;;;;;;;16.67;71.54;98761.18;126050;1093;25868;-83
2021/06/18 04:13:35;;;;;;;13.70;7.93;;;;;;;16.73;71.13;98770.24;126227;1093;26276;-83
2021/06/18 04:16:04;;;;;;;11.57;8.63;;;;;;;16.81;70.92;98766.94;126079;1092;22788;-83
2021/06/18 04:18:33;;;;;;;11.20;8.60;;;;;;;16.84;70.54;98762.85;126147;1092;22761;-83
2021/06/18 04:21:05;;;;;;;9.95;8.13;;;;;;;16.88;70.70;98764.75;126077;1092;22993;-83
2021/06/18 04:23:32;;;;;;;13.53;7.97;;;;;;;16.94;70.70;98768.30;126137;1093;22847;-83
2021/06/18 04:26:00;;;;;;;10.63;8.25;;;;;;;17.00;70.33;98769.14;126148;1093;22795;-83
2021/06/18 04:28:42;;;;;;;10.20;7.13;;;;;;;17.06;70.42;98774.33;126211;1092;22796;-83
2021/06/18 04:31:09;;;;;;;13.20;8.73;;;;;;;17.14;70.50;98775.70;126213;1093;22752;-83
2021/06/18 04:33:37;;;;;;;12.53;8.20;;;;;;;17.20;69.90;98779.25;126004;1093;22934;-83
2021/06/18 04:36:04;;;;;;;12.03;8.15;;;;;;;17.25;69.95;98779.23;126279;1092;22914;-83
2021/06/18 04:38:31;;;;;;;12.63;8.30;;;;;;;17.31;70.01;98775.34;126040;1093;22845;-83
2021/06/18 04:40:58;;;;;;;10.10;7.33;;;;;;;17.37;70.16;98770.63;126050;1093;22778;-83
2021/06/18 04:43:25;;;;;;;11.58;7.73;;;;;;;17.43;69.93;98767.58;126133;1093;24572;-83
2021/06/18 04:45:52;;;;;;;11.78;8.35;;;;;;;17.48;69.49;98769.50;126105;1092;22793;-83
2021/06/18 04:48:20;;;;;;;12.67;8.60;;;;;;;17.54;69.81;98778.55;126113;1093;27345;-83
2021/06/18 04:50:47;;;;;;;12.53;8.03;;;;;;;17.60;69.54;98781.00;126208;1093;22818;-83
2021/06/18 04:53:14;;;;;;;12.58;7.80;;;;;;;17.67;69.29;98772.44;126069;1093;22751;-83
2021/06/18 04:55:42;;;;;;;11.33;8.80;;;;;;;17.72;69.14;98775.14;126066;1093;24419;-83
2021/06/18 04:58:23;;;;;;;13.00;8.60;;;;;;;17.78;68.81;98764.94;126163;1093;22787;-83
2021/06/18 05:00:50;;;;;;;12.33;8.63;;;;;;;17.82;68.61;98760.49;126199;1093;27182;-83
2021/06/18 05:03:17;;;;;;;14.48;8.70;;;;;;;17.88;68.68;98761.30;126563;1092;22823;-83
2021/06/18 05:05:43;;;;;;;14.33;9.20;;;;;;;17.96;68.61;98760.71;126688;1092;22910;-82
2021/06/18 05:08:10;;;;;;;16.23;8.85;;;;;;;18.01;68.75;98764.25;126335;1092;22761;-82
2021/06/18 05:10:37;;;;;;;11.88;8.03;;;;;;;18.09;68.64;98767.50;126361;1093;22767;-81
2021/06/18 05:13:04;;;;;;;14.40;9.27;;;;;;;18.18;68.04;98771.28;126509;1093;22775;-82
2021/06/18 05:15:31;;;;;;;15.53;10.08;;;;;;;18.26;68.09;98761.59;126448;1093;22857;-82
2021/06/18 05:17:59;;;;;;;17.35;9.43;;;;;;;18.34;67.73;98767.31;126419;1092;22825;-81
2021/06/18 05:20:26;;;;;;;14.30;9.37;;;;;;;18.41;67.69;98764.20;126312;1093;22793;-81
2021/06/18 05:22:53;;;;;;;12.33;8.97;;;;;;;18.48;67.74;98761.94;126427;1093;24276;-82
2021/06/18 05:25:20;;;;;;;13.18;7.80;;;;;;;18.56;67.20;98766.02;126403;1093;22793;-82
2021/06/18 05:27:47;;;;;;;9.53;6.93;;;;;;;18.62;67.21;98766.79;126324;1093;22852;-82
2021/06/18 05:30:16;;;;;;;13.13;7.73;;;;;;;18.67;66.70;98766.75;126285;1093;22861;-82
2021/06/18 05:32:47;;;;;;;9.45;7.18;;;;;;;18.73;66.76;98771.08;126587;1092;24550;-82
2021/06/18 05:35:15;;;;;;;9.13;7.53;;;;;;;18.81;66.54;98772.41;126379;1093;25961;-82
2021/06/18 05:37:56;;;;;;;12.65;7.35;;;;;;;18.89;66.49;98767.11;126456;1092;22812;-82
2021/06/18 05:40:23;;;;;;;9.38;7.70;;;;;;;19.00;66.54;98775.25;126579;1093;22817;-82
2021/06/18 05:42:50;;;;;;;10.45;6.75;;;;;;;19.08;65.87;98780.95;126465;1093;22751;-82
2021/06/18 05:45:17;;;;;;;9.63;6.65;;;;;;;19.16;65.75;98772.04;126477;1093;25957;-82
2021/06/18 05:47:44;;;;;;;10.08;7.05;;;;;;;19.25;65.70;98772.22;126347;1093;22841;-83
2021/06/18 05:50:11;;;;;;;9.28;6.90;;;;;;;19.34;65.61;98770.44;126306;1093;22825;-83
2021/06/18 05:52:38;;;;;;;10.35;7.10;;;;;;;19.44;65.69;98768.66;126279;1092;22808;-83
2021/06/18 05:55:07;;;;;;;10.45;7.38;;;;;;;19.53;65.76;98772.44;126437;1092;26258;-82
2021/06/18 05:57:35;;;;;;;10.43;7.23;;;;;;;19.60;65.33;98772.89;126416;1093;27182;-83
2021/06/18 06:00:05;;;;;;;9.95;6.93;;;;;;;19.68;64.91;98769.44;126338;1092;27374;-83
2021/06/18 06:02:33;;;;;;;9.65;6.88;;;;;;;19.76;64.79;98765.24;126507;1093;22753;-83
2021/06/18 06:05:00;;;;;;;8.53;6.73;;;;;;;19.82;65.04;98766.80;126504;1093;22760;-83
2021/06/18 06:07:27;;;;;;;8.28;6.95;;;;;;;19.89;64.56;98771.95;126509;1092;22781;-83
2021/06/18 06:09:54;;;;;;;7.85;6.90;;;;;;;19.97;64.55;98765.73;126303;1092;23363;-83
2021/06/18 06:12:21;;;;;;;10.90;7.48;;;;;;;20.06;64.47;98766.73;126406;1092;24447;-83
2021/06/18 06:14:49;;;;;;;8.20;6.83;;;;;;;20.13;64.57;98763.56;126503;1093;25992;-83
2021/06/18 06:17:19;;;;;;;12.43;6.70;;;;;;;20.21;64.20;98767.61;126542;1093;22781;-83
2021/06/18 06:19:47;;;;;;;8.78;6.25;;;;;;;20.29;63.88;98764.98;126471;1093;22839;-83
2021/06/18 06:22:14;;;;;;;13.98;6.95;;;;;;;20.41;63.38;98774.73;126602;1092;22784;-83
2021/06/18 06:24:41;;;;;;;9.03;6.63;;;;;;;20.53;63.64;98779.81;126249;1092;22831;-83
2021/06/18 06:27:09;;;;;;;10.00;6.80;;;;;;;20.62;63.77;98764.17;126317;1092;22800;-83
2021/06/18 06:29:36;;;;;;;8.10;6.30;;;;;;;20.71;62.84;98764.30;126362;1093;22794;-83
2021/06/18 06:32:03;;;;;;;7.85;6.45;;;;;;;20.81;62.47;98761.35;126386;1092;23373;-83
2021/06/18 06:34:31;;;;;;;8.15;6.35;;;;;;;20.92;62.80;98770.28;126427;1093;23344;-83
2021/06/18 06:36:58;;;;;;;9.53;6.20;;;;;;;21.01;62.05;98769.25;126488;1093;24137;-83
2021/06/18 06:39:25;;;;;;;9.93;6.50;;;;;;;21.11;62.10;98770.20;126542;1092;22762;-84
2021/06/18 06:41:52;;;;;;;9.73;6.63;;;;;;;21.20;61.11;98771.13;126312;1093;22809;-83
2021/06/18 06:44:19;;;;;;;8.65;6.85;;;;;;;21.29;61.56;98763.73;126486;1092;22797;-83
2021/06/18 06:46:46;;;;;;;10.13;6.40;;;;;;;21.39;61.39;98760.75;126463;1093;22764;-83
2021/06/18 06:49:13;;;;;;;9.80;7.23;;;;;;;21.51;60.87;98762.20;126598;1091;22761;-83
2021/06/18 06:51:40;;;;;;;11.20;6.73;;;;;;;21.61;60.60;98764.76;126345;1093;22767;-83
2021/06/18 06:54:07;;;;;;;12.33;6.43;;;;;;;21.72;60.68;98766.16;126568;1093;24556;-84
2021/06/18 06:56:36;;;;;;;10.98;6.25;;;;;;;21.84;60.41;98759.27;126361;1093;24133;-84
2021/06/18 06:59:03;;;;;;;8.00;6.13;;;;;;;21.93;60.15;98763.75;126575;1093;22799;-84
2021/06/18 07:01:33;;;;;;;11.70;6.43;;;;;;;22.03;59.94;98757.16;126594;1092;25983;-84
2021/06/18 07:04:00;;;;;;;8.40;6.50;;;;;;;22.14;59.80;98758.55;126455;1093;27266;-84
2021/06/18 07:06:32;;;;;;;12.13;6.83;;;;;;;22.23;59.43;98755.84;126518;1093;23376;-84
2021/06/18 07:09:00;;;;;;;12.98;6.35;;;;;;;22.34;58.93;98759.21;126568;1093;23415;-84
2021/06/18 07:11:26;;;;;;;14.50;6.68;;;;;;;22.46;59.29;98759.46;126347;1093;23244;-84
2021/06/18 07:13:53;;;;;;;10.05;6.20;;;;;;;22.57;59.42;98760.02;126359;1092;24161;-84
2021/06/18 07:16:35;;;;;;;7.05;5.83;;;;;;;22.69;58.87;98762.22;126473;1092;22772;-84
2021/06/18 07:19:02;;;;;;;14.38;5.88;;;;;;;22.80;58.65;98766.36;126563;1093;22813;-84
2021/06/18 07:21:29;;;;;;;10.87;5.83;;;;;;;22.93;58.28;98768.23;126481;1092;22777;-84
2021/06/18 07:23:57;;;;;;;10.95;6.48;;;;;;;23.03;57.47;98758.78;126325;1092;22919;-84
2021/06/18 07:26:24;;;;;;;11.38;5.93;;;;;;;23.17;57.79;98761.49;126476;1093;22806;-84
2021/06/18 07:28:51;;;;;;;7.88;6.28;;;;;;;23.29;56.55;98760.89;126473;1093;22912;-84
2021/06/18 07:31:18;;;;;;;9.75;6.10;;;;;;;23.39;56.42;98752.26;126316;1093;25842;-84
2021/06/18 07:33:45;;;;;;;10.93;5.80;;;;;;;23.54;56.61;98756.53;126301;1093;22919;-83
2021/06/18 07:36:11;;;;;;;12.07;6.07;;;;;;;23.68;56.37;98754.44;126259;1093;22775;-84
2021/06/18 07:38:38;;;;;;;12.65;6.53;;;;;;;23.79;55.61;98743.00;126353;1093;26408;-84
2021/06/18 07:41:05;;;;;;;10.10;6.18;;;;;;;23.89;54.72;98748.28;126295;1093;22815;-84
2021/06/18 07:43:32;;;;;;;13.83;6.58;;;;;;;24.00;54.78;98744.02;126098;1092;23251;-84
2021/06/18 07:45:59;;;;;;;12.58;6.33;;;;;;;24.14;54.11;98741.08;126184;1093;25868;-84
2021/06/18 07:48:27;;;;;;;12.20;6.88;;;;;;;24.27;53.97;98744.82;126009;1093;27485;-83
2021/06/18 07:50:54;;;;;;;13.05;6.55;;;;;;;24.39;53.63;98742.19;126145;1093;22761;-84
2021/06/18 07:53:21;;;;;;;9.48;6.10;;;;;;;24.53;53.68;98742.03;126026;1092;24456;-84
2021/06/18 07:55:50;;;;;;;16.65;6.70;;;;;;;24.67;52.95;98733.48;126165;1093;27993;-84
2021/06/18 07:58:17;;;;;;;12.38;7.38;;;;;;;24.82;52.72;98741.31;126015;1093;22809;-84
2021/06/18 08:01:00;;;;;;;14.58;6.45;;;;;;;24.99;53.28;98736.83;126153;1093;22761;-84
2021/06/18 08:03:27;;;;;;;17.83;7.30;;;;;;;25.17;52.76;98746.73;126109;1092;22781;-84
2021/06/18 08:05:54;;;;;;;10.15;6.35;;;;;;;25.34;52.15;98740.30;126056;1093;22861;-84
2021/06/18 08:08:21;;;;;;;13.28;7.40;;;;;;;25.49;51.59;98741.67;126169;1093;27195;-83
2021/06/18 08:10:47;;;;;;;11.73;7.18;;;;;;;25.63;51.08;98740.62;126205;1092;22877;-84
2021/06/18 08:13:15;;;;;;;11.75;7.15;;;;;;;25.76;50.99;98736.73;126248;1093;22788;-83
2021/06/18 08:15:42;;;;;;;12.20;7.53;;;;;;;25.91;50.37;98735.33;126259;1093;22808;-84
2021/06/18 08:18:09;;;;;;;10.83;7.23;;;;;;;26.02;49.41;98733.78;126045;1092;22925;-83
2021/06/18 08:20:36;;;;;;;12.98;7.13;;;;;;;26.14;48.31;98731.05;126028;1093;27335;-84
2021/06/18 08:23:03;;;;;;;14.50;7.35;;;;;;;26.25;48.70;98731.44;126199;1093;22757;-84
2021/06/18 08:25:30;;;;;;;14.00;7.15;;;;;;;26.41;47.10;98726.03;126147;1093;24465;-84
2021/06/18 08:27:56;;;;;;;13.83;7.40;;;;;;;26.56;48.46;98730.17;126207;1093;22810;-84
2021/06/18 08:30:24;;;;;;;11.00;6.15;;;;;;;26.71;47.10;98725.91;126191;1093;22757;-84
2021/06/18 08:32:52;;;;;;;11.83;7.00;;;;;;;26.84;46.98;98724.79;126151;1093;22922;-84
2021/06/18 08:35:33;;;;;;;11.93;6.45;;;;;;;27.00;46.00;98719.33;126098;1093;22972;-84
2021/06/18 08:38:02;;;;;;;12.30;6.75;;;;;;;27.13;45.17;98722.11;126163;1093;27332;-84
2021/06/18 08:40:30;;;;;;;9.23;6.05;;;;;;;27.23;44.83;98722.48;126014;1093;22851;-84
2021/06/18 08:42:58;;;;;;;10.68;5.95;;;;;;;27.38;44.66;98720.17;126126;1093;22811;-84
2021/06/18 08:45:25;;;;;;;10.25;6.40;;;;;;;27.48;43.33;98716.88;126259;1093;22771;-84
2021/06/18 08:47:52;;;;;;;7.65;5.70;;;;;;;27.60;43.02;98719.66;125986;1092;23826;-85
2021/06/18 08:50:23;;;;;;;10.47;6.20;;;;;;;27.78;42.23;98723.03;126066;1093;26252;-84
2021/06/18 08:52:53;;;;;;;9.15;5.83;;;;;;;27.99;42.39;98719.25;126600;1093;22837;-85
2021/06/18 08:55:31;;;;;;;8.08;5.43;;;;;;;28.16;41.99;98713.36;126469;1093;26382;-85
2021/06/18 08:58:02;;;;;;;10.93;5.63;;;;;;;28.35;41.18;98714.70;126213;1093;23475;-84
2021/06/18 09:00:33;;;;;;;8.40;5.85;;;;;;;28.45;40.70;98708.55;126286;1093;22918;-85
2021/06/18 09:03:20;;;;;;;10.78;5.85;;;;;;;28.57;40.90;98714.12;126135;1092;22911;-85
2021/06/18 09:05:52;;;;;;;7.33;5.85;;;;;;;28.72;40.17;98711.69;126097;1093;24577;-85
2021/06/18 09:08:19;;;;;;;7.25;5.25;;;;;;;28.83;39.99;98704.39;126405;1092;24549;-84
2021/06/18 09:10:46;;;;;;;7.60;5.50;;;;;;;28.91;39.51;98708.98;126226;1093;22805;-84
2021/06/18 09:13:35;;;;;;;8.98;5.53;;;;;;;28.97;38.64;98707.56;126280;1093;28245;-85
2021/06/18 09:16:03;;;;;;;10.05;5.75;;;;;;;29.09;39.28;98698.25;126379;1093;22754;-85
2021/06/18 09:18:37;;;;;;;14.15;6.33;;;;;;;29.25;38.58;98694.63;126391;1093;22738;-85
2021/06/18 09:21:24;;;;;;;6.83;5.63;;;;;;;29.46;39.72;98686.70;126239;1093;22778;-85
2021/06/18 09:23:56;;;;;;;7.08;5.88;;;;;;;29.60;38.88;98696.63;126335;1093;24438;-85
2021/06/18 09:26:25;;;;;;;7.45;5.30;;;;;;;29.73;38.59;98700.95;126265;1092;27519;-85
2021/06/18 09:29:00;;;;;;;7.08;4.70;;;;;;;29.81;37.20;98685.90;126393;1093;22751;-85
2021/06/18 09:31:48;;;;;;;5.98;4.03;;;;;;;29.94;37.06;98683.75;126399;1092;22763;-85
2021/06/18 09:37:39;;;;;;;6.10;4.53;;;;;;;30.35;36.42;98686.20;126243;1093;22784;-85
2021/06/18 09:40:32;;;;;;;5.73;4.63;;;;;;;30.53;36.24;98684.56;126374;1093;22877;-85
2021/06/18 09:43:15;;;;;;;4.58;4.18;;;;;;;30.70;35.34;98691.67;126645;1093;22768;-85
2021/06/18 09:45:44;;;;;;;5.67;3.73;;;;;;;30.83;35.08;98692.32;126465;1093;22812;-85
2021/06/18 09:48:34;;;;;;;3.75;3.23;;;;;;;30.96;33.88;98690.16;126290;1093;22791;-86
2021/06/18 09:51:09;;;;;;;4.98;4.20;;;;;;;30.96;34.13;98696.58;126185;1093;22760;-86
2021/06/18 09:53:40;;;;;;;7.18;4.10;;;;;;;31.10;34.70;98698.02;126285;1093;22743;-86
2021/06/18 09:56:15;;;;;;;8.20;4.37;;;;;;;31.22;34.04;98687.37;126334;1093;26236;-85
2021/06/18 09:58:48;;;;;;;6.60;4.95;;;;;;;31.29;33.34;98691.47;126192;1092;25887;-86
2021/06/18 10:01:24;;;;;;;8.33;4.10;;;;;;;31.30;32.06;98687.48;126252;1093;22806;-86
2021/06/18 10:04:11;;;;;;;3.95;3.63;;;;;;;31.30;32.18;98693.11;126185;1093;22787;-85
2021/06/18 10:06:41;;;;;;;5.08;3.90;;;;;;;31.32;32.41;98693.53;126227;1093;24025;-85
2021/06/18 10:09:10;;;;;;;6.33;4.63;;;;;;;31.34;33.49;98689.16;126150;1091;22809;-86
2021/06/18 10:11:42;;;;;;;6.30;4.58;;;;;;;31.43;32.94;98688.89;126140;1093;22916;-85
2021/06/18 10:14:10;;;;;;;7.15;4.18;;;;;;;31.57;33.59;98683.50;126218;1093;22782;-85
2021/06/18 10:16:51;;;;;;;5.75;4.15;;;;;;;31.71;33.44;98684.88;126207;1093;27329;-86
2021/06/18 10:19:18;;;;;;;5.33;4.80;;;;;;;31.79;32.63;98681.77;126147;1092;22922;-85
2021/06/18 10:22:06;;;;;;;4.73;4.23;;;;;;;31.92;33.31;98681.53;126179;1093;22816;-85
2021/06/18 10:24:35;;;;;;;;;;;;;;;32.04;32.88;98678.50;126231;1093;22828;-86
2021/06/18 10:27:04;;;;;;;4.48;3.80;;;;;;;32.08;32.31;98681.36;126214;1093;21508;-86
2021/06/18 10:29:38;;;;;;;5.10;4.20;;;;;;;32.15;32.27;98672.98;126069;1093;22778;-85
2021/06/18 10:32:27;;;;;;;6.55;4.20;;;;;;;32.19;31.86;98679.47;126203;1093;27176;-85
2021/06/18 10:34:57;;;;;;;4.90;4.30;;;;;;;32.25;33.32;98674.31;126193;1093;22869;-86
2021/06/18 10:37:27;;;;;;;5.45;4.08;;;;;;;32.25;31.94;98668.68;126076;1093;26252;-85
2021/06/18 10:40:10;;;;;;;4.43;3.93;;;;;;;32.35;32.16;98665.98;126262;1093;22760;-86
2021/06/18 10:43:10;;;;;;;4.63;4.00;;;;;;;32.52;32.13;98666.54;126313;1093;26235;-85
2021/06/18 10:46:00;;;;;;;4.07;3.67;;;;;;;32.70;31.85;98661.90;126255;1093;26258;-85
2021/06/18 10:48:53;;;;;;;6.17;4.10;;;;;;;32.80;31.64;98662.41;126468;1093;22598;-86
2021/06/18 10:51:27;;;;;;;4.00;3.70;;;;;;;32.89;30.86;98666.50;126904;1092;22849;-86
2021/06/18 10:54:04;;;;;;;4.80;4.10;;;;;;;32.93;30.09;98660.89;126659;1093;25865;-85
2021/06/18 10:56:50;;;;;;;3.88;3.53;;;;;;;32.93;29.94;98658.07;126746;1092;22841;-85
2021/06/18 10:59:26;;;;;;;6.43;3.77;;;;;;;32.96;29.67;98654.48;126535;1093;22760;-85
2021/06/18 11:01:53;;;;;;;5.87;3.60;;;;;;;32.97;29.61;98658.93;126565;1093;26298;-86
2021/06/18 11:04:44;;;;;;;5.48;4.20;;;;;;;33.01;30.23;98658.95;126570;1093;22740;-86
2021/06/18 11:07:35;;;;;;;4.20;3.80;;;;;;;33.13;30.92;98661.50;126260;1092;24565;-86
2021/06/18 11:10:07;;;;;;;4.28;3.88;;;;;;;33.17;28.87;98655.88;126150;1093;22884;-86
2021/06/18 11:12:35;;;;;;;4.37;3.47;;;;;;;33.20;28.86;98655.91;126220;1093;22757;-86
2021/06/18 11:15:06;;;;;;;3.93;3.25;;;;;;;33.28;27.87;98643.44;126246;1093;24408;-86
2021/06/18 11:17:43;;;;;;;5.63;3.73;;;;;;;33.18;27.44;98652.64;126092;1093;22874;-86
2021/06/18 11:20:15;;;;;;;5.60;3.40;;;;;;;33.10;28.21;98646.12;126290;1091;24885;-86
2021/06/18 11:22:47;;;;;;;5.03;3.63;;;;;;;33.05;28.77;98646.48;126052;1092;22784;-86
2021/06/18 11:25:40;;;;;;;6.43;4.30;;;;;;;33.08;28.81;98639.26;126192;1093;22919;-86
2021/06/18 11:28:31;;;;;;;5.85;3.55;;;;;;;33.20;28.26;98640.97;126271;1092;22767;-86
2021/06/18 11:31:37;;;;;;;4.18;3.40;;;;;;;33.31;28.13;98636.22;126207;1093;22757;-86
2021/06/18 11:34:04;;;;;;;3.50;3.23;;;;;;;33.37;26.81;98633.83;126210;1092;22912;-86
2021/06/18 11:36:37;;;;;;;3.55;3.13;;;;;;;33.40;27.73;98639.49;126292;1093;27262;-86
2021/06/18 11:39:19;;;;;;;;;;;;;;;33.49;27.23;98631.47;126272;1093;26242;-86
2021/06/18 11:41:49;;;;;;;3.93;3.63;;;;;;;33.41;25.73;98632.63;126252;1093;21457;-86
2021/06/18 11:44:23;;;;;;;4.03;3.63;;;;;;;33.38;27.25;98633.44;126230;1092;22756;-86
2021/06/18 11:46:52;;;;;;;3.83;3.40;;;;;;;33.45;27.36;98629.84;126219;1093;26283;-86